sensor_id;sensor_type;location;lat;lon;timestamp;P1;P2;P0
46094;PMS5003;31832;50.746;-2.716;2023-10-09T00:01:12;27;26;
46094;PMS5003;31832;50.746;-2.716;2023-10-09T00:03:37;25;24;
46094;PMS5003;31832;50.746;-2.716;2023-10-09T00:06:04;25;22;
46094;PMS5003;31832;50.746;-2.716;2023-10-09T00:08:29;23;19;
46094;PMS5003;31832;50.746;-2.716;2023-10-09T00:10:54;21;20;
46094;PMS5003;31832;50.746;-2.716;2023-10-09T00:13:20;20;16;
46094;PMS5003;31832;50.746;-2.716;2023-10-09T00:15:45;16;14;
46094;PMS5003;31832;50.746;-2.716;2023-10-09T00:18:11;16;16;
46094;PMS5003;31832;50.746;-2.716;2023-10-09T00:20:37;16;15;
46094;PMS5003;31832;50.746;-2.716;2023-10-09T00:23:02;13;13;
46094;PMS5003;31832;50.746;-2.716;2023-10-09T00:25:27;20;17;
46094;PMS5003;31832;50.746;-2.716;2023-10-09T00:27:53;20;17;
46094;PMS5003;31832;50.746;-2.716;2023-10-09T00:30:18;21;18;
46094;PMS5003;31832;50.746;-2.716;2023-10-09T00:32:44;21;19;
46094;PMS5003;31832;50.746;-2.716;2023-10-09T00:35:09;32;30;
46094;PMS5003;31832;50.746;-2.716;2023-10-09T00:37:34;23;20;
46094;PMS5003;31832;50.746;-2.716;2023-10-09T00:39:59;23;22;
46094;PMS5003;31832;50.746;-2.716;2023-10-09T00:42:25;16;16;
46094;PMS5003;31832;50.746;-2.716;2023-10-09T00:44:51;17;14;
46094;PMS5003;31832;50.746;-2.716;2023-10-09T00:47:16;22;17;
46094;PMS5003;31832;50.746;-2.716;2023-10-09T00:49:41;16;16;
46094;PMS5003;31832;50.746;-2.716;2023-10-09T00:52:07;22;16;
46094;PMS5003;31832;50.746;-2.716;2023-10-09T00:54:32;16;15;
46094;PMS5003;31832;50.746;-2.716;2023-10-09T00:56:57;15;14;
46094;PMS5003;31832;50.746;-2.716;2023-10-09T00:59:23;19;19;
46094;PMS5003;31832;50.746;-2.716;2023-10-09T01:01:49;21;21;
46094;PMS5003;31832;50.746;-2.716;2023-10-09T01:04:14;22;20;
46094;PMS5003;31832;50.746;-2.716;2023-10-09T01:06:41;23;22;
46094;PMS5003;31832;50.746;-2.716;2023-10-09T01:09:06;23;22;
46094;PMS5003;31832;50.746;-2.716;2023-10-09T01:11:32;24;22;
46094;PMS5003;31832;50.746;-2.716;2023-10-09T01:13:57;23;22;
46094;PMS5003;31832;50.746;-2.716;2023-10-09T01:16:23;24;20;
46094;PMS5003;31832;50.746;-2.716;2023-10-09T01:18:48;19;17;
46094;PMS5003;31832;50.746;-2.716;2023-10-09T01:21:13;17;16;
46094;PMS5003;31832;50.746;-2.716;2023-10-09T01:23:39;19;17;
46094;PMS5003;31832;50.746;-2.716;2023-10-09T01:26:03;19;18;
46094;PMS5003;31832;50.746;-2.716;2023-10-09T01:28:32;17;16;
46094;PMS5003;31832;50.746;-2.716;2023-10-09T01:30:54;15;13;
46094;PMS5003;31832;50.746;-2.716;2023-10-09T01:33:19;15;15;
46094;PMS5003;31832;50.746;-2.716;2023-10-09T01:35:45;23;21;
46094;PMS5003;31832;50.746;-2.716;2023-10-09T01:38:10;19;18;
46094;PMS5003;31832;50.746;-2.716;2023-10-09T01:40:36;17;15;
46094;PMS5003;31832;50.746;-2.716;2023-10-09T01:43:02;20;19;
46094;PMS5003;31832;50.746;-2.716;2023-10-09T01:45:27;19;19;
46094;PMS5003;31832;50.746;-2.716;2023-10-09T01:47:52;19;18;
46094;PMS5003;31832;50.746;-2.716;2023-10-09T01:50:18;15;15;
46094;PMS5003;31832;50.746;-2.716;2023-10-09T01:52:43;19;19;
46094;PMS5003;31832;50.746;-2.716;2023-10-09T01:55:09;25;25;
46094;PMS5003;31832;50.746;-2.716;2023-10-09T01:57:34;21;21;
46094;PMS5003;31832;50.746;-2.716;2023-10-09T02:00:00;17;16;
46094;PMS5003;31832;50.746;-2.716;2023-10-09T02:02:26;22;18;
46094;PMS5003;31832;50.746;-2.716;2023-10-09T02:04:52;22;20;
46094;PMS5003;31832;50.746;-2.716;2023-10-09T02:07:17;22;20;
46094;PMS5003;31832;50.746;-2.716;2023-10-09T02:09:42;20;19;
46094;PMS5003;31832;50.746;-2.716;2023-10-09T02:12:09;27;20;
46094;PMS5003;31832;50.746;-2.716;2023-10-09T02:14:34;22;20;
46094;PMS5003;31832;50.746;-2.716;2023-10-09T02:16:59;20;20;
46094;PMS5003;31832;50.746;-2.716;2023-10-09T02:19:25;23;18;
46094;PMS5003;31832;50.746;-2.716;2023-10-09T02:21:51;22;21;
46094;PMS5003;31832;50.746;-2.716;2023-10-09T02:24:16;19;17;
46094;PMS5003;31832;50.746;-2.716;2023-10-09T02:26:41;21;20;
46094;PMS5003;31832;50.746;-2.716;2023-10-09T02:29:07;19;18;
46094;PMS5003;31832;50.746;-2.716;2023-10-09T02:31:33;20;17;
46094;PMS5003;31832;50.746;-2.716;2023-10-09T02:33:58;17;16;
46094;PMS5003;31832;50.746;-2.716;2023-10-09T02:36:24;24;18;
46094;PMS5003;31832;50.746;-2.716;2023-10-09T02:38:49;16;15;
46094;PMS5003;31832;50.746;-2.716;2023-10-09T02:41:15;22;20;
46094;PMS5003;31832;50.746;-2.716;2023-10-09T02:43:40;21;18;
46094;PMS5003;31832;50.746;-2.716;2023-10-09T02:46:06;20;19;
46094;PMS5003;31832;50.746;-2.716;2023-10-09T02:48:32;18;18;
46094;PMS5003;31832;50.746;-2.716;2023-10-09T02:50:57;17;17;
46094;PMS5003;31832;50.746;-2.716;2023-10-09T02:53:22;21;19;
46094;PMS5003;31832;50.746;-2.716;2023-10-09T02:55:48;21;20;
46094;PMS5003;31832;50.746;-2.716;2023-10-09T02:58:14;19;18;
46094;PMS5003;31832;50.746;-2.716;2023-10-09T03:00:39;19;17;
46094;PMS5003;31832;50.746;-2.716;2023-10-09T03:03:05;21;20;
46094;PMS5003;31832;50.746;-2.716;2023-10-09T03:05:30;21;17;
46094;PMS5003;31832;50.746;-2.716;2023-10-09T03:07:56;21;19;
46094;PMS5003;31832;50.746;-2.716;2023-10-09T03:10:22;17;16;
46094;PMS5003;31832;50.746;-2.716;2023-10-09T03:12:46;16;15;
46094;PMS5003;31832;50.746;-2.716;2023-10-09T03:15:12;15;14;
46094;PMS5003;31832;50.746;-2.716;2023-10-09T03:17:38;17;17;
46094;PMS5003;31832;50.746;-2.716;2023-10-09T03:20:04;21;18;
46094;PMS5003;31832;50.746;-2.716;2023-10-09T03:22:29;19;17;
46094;PMS5003;31832;50.746;-2.716;2023-10-09T03:24:55;15;13;
46094;PMS5003;31832;50.746;-2.716;2023-10-09T03:27:21;17;14;
46094;PMS5003;31832;50.746;-2.716;2023-10-09T03:29:46;20;19;
46094;PMS5003;31832;50.746;-2.716;2023-10-09T03:32:11;16;15;
46094;PMS5003;31832;50.746;-2.716;2023-10-09T03:34:37;20;19;
46094;PMS5003;31832;50.746;-2.716;2023-10-09T03:37:03;19;18;
46094;PMS5003;31832;50.746;-2.716;2023-10-09T03:39:29;16;16;
46094;PMS5003;31832;50.746;-2.716;2023-10-09T03:41:55;16;16;
46094;PMS5003;31832;50.746;-2.716;2023-10-09T03:44:20;24;20;
46094;PMS5003;31832;50.746;-2.716;2023-10-09T03:46:45;22;20;
46094;PMS5003;31832;50.746;-2.716;2023-10-09T03:49:11;17;17;
46094;PMS5003;31832;50.746;-2.716;2023-10-09T03:51:36;22;20;
46094;PMS5003;31832;50.746;-2.716;2023-10-09T03:54:01;21;20;
46094;PMS5003;31832;50.746;-2.716;2023-10-09T03:56:27;23;18;
46094;PMS5003;31832;50.746;-2.716;2023-10-09T03:58:53;17;17;
46094;PMS5003;31832;50.746;-2.716;2023-10-09T04:01:19;20;19;
46094;PMS5003;31832;50.746;-2.716;2023-10-09T04:03:44;22;18;
46094;PMS5003;31832;50.746;-2.716;2023-10-09T04:06:09;19;18;
46094;PMS5003;31832;50.746;-2.716;2023-10-09T04:08:35;17;14;
46094;PMS5003;31832;50.746;-2.716;2023-10-09T04:11:00;18;15;
46094;PMS5003;31832;50.746;-2.716;2023-10-09T04:13:26;18;18;
46094;PMS5003;31832;50.746;-2.716;2023-10-09T04:15:51;20;18;
46094;PMS5003;31832;50.746;-2.716;2023-10-09T04:18:17;23;19;
46094;PMS5003;31832;50.746;-2.716;2023-10-09T04:20:42;19;17;
46094;PMS5003;31832;50.746;-2.716;2023-10-09T04:23:08;16;15;
46094;PMS5003;31832;50.746;-2.716;2023-10-09T04:25:34;18;15;
46094;PMS5003;31832;50.746;-2.716;2023-10-09T04:27:59;14;13;
46094;PMS5003;31832;50.746;-2.716;2023-10-09T04:30:26;16;16;
46094;PMS5003;31832;50.746;-2.716;2023-10-09T04:32:50;14;13;
46094;PMS5003;31832;50.746;-2.716;2023-10-09T04:35:16;16;16;
46094;PMS5003;31832;50.746;-2.716;2023-10-09T04:37:41;13;12;
46094;PMS5003;31832;50.746;-2.716;2023-10-09T04:40:08;17;15;
46094;PMS5003;31832;50.746;-2.716;2023-10-09T04:42:32;17;15;
46094;PMS5003;31832;50.746;-2.716;2023-10-09T04:44:58;16;15;
46094;PMS5003;31832;50.746;-2.716;2023-10-09T04:47:23;17;16;
46094;PMS5003;31832;50.746;-2.716;2023-10-09T04:49:48;18;17;
46094;PMS5003;31832;50.746;-2.716;2023-10-09T04:52:14;18;17;
46094;PMS5003;31832;50.746;-2.716;2023-10-09T04:54:39;18;17;
46094;PMS5003;31832;50.746;-2.716;2023-10-09T04:57:05;19;18;
46094;PMS5003;31832;50.746;-2.716;2023-10-09T04:59:31;18;16;
46094;PMS5003;31832;50.746;-2.716;2023-10-09T05:01:56;15;15;
46094;PMS5003;31832;50.746;-2.716;2023-10-09T05:04:21;19;19;
46094;PMS5003;31832;50.746;-2.716;2023-10-09T05:06:47;17;15;
46094;PMS5003;31832;50.746;-2.716;2023-10-09T05:09:12;21;17;
46094;PMS5003;31832;50.746;-2.716;2023-10-09T05:11:37;16;16;
46094;PMS5003;31832;50.746;-2.716;2023-10-09T05:14:03;14;14;
46094;PMS5003;31832;50.746;-2.716;2023-10-09T05:16:29;15;15;
46094;PMS5003;31832;50.746;-2.716;2023-10-09T05:18:55;14;13;
46094;PMS5003;31832;50.746;-2.716;2023-10-09T05:21:20;12;12;
46094;PMS5003;31832;50.746;-2.716;2023-10-09T05:23:45;14;14;
46094;PMS5003;31832;50.746;-2.716;2023-10-09T05:26:11;11;11;
46094;PMS5003;31832;50.746;-2.716;2023-10-09T05:28:36;18;15;
46094;PMS5003;31832;50.746;-2.716;2023-10-09T05:31:02;10;10;
46094;PMS5003;31832;50.746;-2.716;2023-10-09T05:33:28;14;13;
46094;PMS5003;31832;50.746;-2.716;2023-10-09T05:35:53;16;16;
46094;PMS5003;31832;50.746;-2.716;2023-10-09T05:38:18;17;17;
46094;PMS5003;31832;50.746;-2.716;2023-10-09T05:40:44;17;16;
46094;PMS5003;31832;50.746;-2.716;2023-10-09T05:43:10;20;18;
46094;PMS5003;31832;50.746;-2.716;2023-10-09T05:45:36;18;18;
46094;PMS5003;31832;50.746;-2.716;2023-10-09T05:48:01;19;18;
46094;PMS5003;31832;50.746;-2.716;2023-10-09T05:50:27;20;20;
46094;PMS5003;31832;50.746;-2.716;2023-10-09T05:52:52;16;16;
46094;PMS5003;31832;50.746;-2.716;2023-10-09T05:55:17;15;14;
46094;PMS5003;31832;50.746;-2.716;2023-10-09T05:57:42;14;14;
46094;PMS5003;31832;50.746;-2.716;2023-10-09T06:00:08;18;16;
46094;PMS5003;31832;50.746;-2.716;2023-10-09T06:02:33;15;15;
46094;PMS5003;31832;50.746;-2.716;2023-10-09T06:04:59;17;17;
46094;PMS5003;31832;50.746;-2.716;2023-10-09T06:07:24;18;17;
46094;PMS5003;31832;50.746;-2.716;2023-10-09T06:09:50;17;15;
46094;PMS5003;31832;50.746;-2.716;2023-10-09T06:12:16;15;15;
46094;PMS5003;31832;50.746;-2.716;2023-10-09T06:14:41;18;15;
46094;PMS5003;31832;50.746;-2.716;2023-10-09T06:17:07;18;18;
46094;PMS5003;31832;50.746;-2.716;2023-10-09T06:19:33;20;20;
46094;PMS5003;31832;50.746;-2.716;2023-10-09T06:21:59;21;19;
46094;PMS5003;31832;50.746;-2.716;2023-10-09T06:24:24;18;17;
46094;PMS5003;31832;50.746;-2.716;2023-10-09T06:26:50;17;17;
46094;PMS5003;31832;50.746;-2.716;2023-10-09T06:29:15;20;19;
46094;PMS5003;31832;50.746;-2.716;2023-10-09T06:31:41;19;17;
46094;PMS5003;31832;50.746;-2.716;2023-10-09T06:34:06;17;16;
46094;PMS5003;31832;50.746;-2.716;2023-10-09T06:36:32;15;13;
46094;PMS5003;31832;50.746;-2.716;2023-10-09T06:38:57;18;12;
46094;PMS5003;31832;50.746;-2.716;2023-10-09T06:41:23;18;16;
46094;PMS5003;31832;50.746;-2.716;2023-10-09T06:43:54;19;16;
46094;PMS5003;31832;50.746;-2.716;2023-10-09T06:46:15;14;13;
46094;PMS5003;31832;50.746;-2.716;2023-10-09T06:48:39;14;11;
46094;PMS5003;31832;50.746;-2.716;2023-10-09T06:51:06;13;13;
46094;PMS5003;31832;50.746;-2.716;2023-10-09T06:53:30;14;13;
46094;PMS5003;31832;50.746;-2.716;2023-10-09T06:55:56;15;15;
46094;PMS5003;31832;50.746;-2.716;2023-10-09T06:58:22;16;13;
46094;PMS5003;31832;50.746;-2.716;2023-10-09T07:00:48;13;12;
46094;PMS5003;31832;50.746;-2.716;2023-10-09T07:03:13;14;13;
46094;PMS5003;31832;50.746;-2.716;2023-10-09T07:05:38;17;16;
46094;PMS5003;31832;50.746;-2.716;2023-10-09T07:08:04;14;14;
46094;PMS5003;31832;50.746;-2.716;2023-10-09T07:10:32;18;15;
46094;PMS5003;31832;50.746;-2.716;2023-10-09T07:12:56;13;13;
46094;PMS5003;31832;50.746;-2.716;2023-10-09T07:15:20;14;14;
46094;PMS5003;31832;50.746;-2.716;2023-10-09T07:17:46;20;16;
46094;PMS5003;31832;50.746;-2.716;2023-10-09T07:20:11;14;11;
46094;PMS5003;31832;50.746;-2.716;2023-10-09T07:22:36;12;12;
46094;PMS5003;31832;50.746;-2.716;2023-10-09T07:25:02;13;11;
46094;PMS5003;31832;50.746;-2.716;2023-10-09T07:27:28;15;14;
46094;PMS5003;31832;50.746;-2.716;2023-10-09T07:29:53;16;14;
46094;PMS5003;31832;50.746;-2.716;2023-10-09T07:32:18;14;13;
46094;PMS5003;31832;50.746;-2.716;2023-10-09T07:34:43;16;16;
46094;PMS5003;31832;50.746;-2.716;2023-10-09T07:37:09;13;13;
46094;PMS5003;31832;50.746;-2.716;2023-10-09T07:39:34;17;15;
46094;PMS5003;31832;50.746;-2.716;2023-10-09T07:42:01;19;19;
46094;PMS5003;31832;50.746;-2.716;2023-10-09T07:44:26;14;14;
46094;PMS5003;31832;50.746;-2.716;2023-10-09T07:46:51;14;14;
46094;PMS5003;31832;50.746;-2.716;2023-10-09T07:49:16;15;14;
46094;PMS5003;31832;50.746;-2.716;2023-10-09T07:51:41;15;15;
46094;PMS5003;31832;50.746;-2.716;2023-10-09T07:54:07;14;14;
46094;PMS5003;31832;50.746;-2.716;2023-10-09T07:56:32;14;14;
46094;PMS5003;31832;50.746;-2.716;2023-10-09T07:58:58;16;13;
46094;PMS5003;31832;50.746;-2.716;2023-10-09T08:01:23;17;16;
46094;PMS5003;31832;50.746;-2.716;2023-10-09T08:03:49;17;15;
46094;PMS5003;31832;50.746;-2.716;2023-10-09T08:06:14;15;14;
46094;PMS5003;31832;50.746;-2.716;2023-10-09T08:08:39;17;14;
46094;PMS5003;31832;50.746;-2.716;2023-10-09T08:11:07;16;16;
46094;PMS5003;31832;50.746;-2.716;2023-10-09T08:13:30;14;14;
46094;PMS5003;31832;50.746;-2.716;2023-10-09T08:15:56;19;18;
46094;PMS5003;31832;50.746;-2.716;2023-10-09T08:18:22;19;15;
46094;PMS5003;31832;50.746;-2.716;2023-10-09T08:20:48;14;14;
46094;PMS5003;31832;50.746;-2.716;2023-10-09T08:23:13;16;14;
46094;PMS5003;31832;50.746;-2.716;2023-10-09T08:25:38;15;15;
46094;PMS5003;31832;50.746;-2.716;2023-10-09T08:28:04;19;19;
46094;PMS5003;31832;50.746;-2.716;2023-10-09T08:30:29;15;15;
46094;PMS5003;31832;50.746;-2.716;2023-10-09T08:32:54;15;13;
46094;PMS5003;31832;50.746;-2.716;2023-10-09T08:35:20;17;16;
46094;PMS5003;31832;50.746;-2.716;2023-10-09T08:37:46;13;12;
46094;PMS5003;31832;50.746;-2.716;2023-10-09T08:40:11;13;13;
46094;PMS5003;31832;50.746;-2.716;2023-10-09T08:42:36;14;14;
46094;PMS5003;31832;50.746;-2.716;2023-10-09T08:45:02;19;16;
46094;PMS5003;31832;50.746;-2.716;2023-10-09T08:47:28;16;15;
46094;PMS5003;31832;50.746;-2.716;2023-10-09T08:49:52;13;13;
46094;PMS5003;31832;50.746;-2.716;2023-10-09T08:52:18;16;16;
46094;PMS5003;31832;50.746;-2.716;2023-10-09T08:54:44;30;30;
46094;PMS5003;31832;50.746;-2.716;2023-10-09T08:57:09;76;69;
46094;PMS5003;31832;50.746;-2.716;2023-10-09T08:59:39;62;57;
46094;PMS5003;31832;50.746;-2.716;2023-10-09T09:02:00;53;49;
46094;PMS5003;31832;50.746;-2.716;2023-10-09T09:04:34;29;29;
46094;PMS5003;31832;50.746;-2.716;2023-10-09T09:06:51;31;30;
46094;PMS5003;31832;50.746;-2.716;2023-10-09T09:09:17;27;27;
46094;PMS5003;31832;50.746;-2.716;2023-10-09T09:11:42;29;27;
46094;PMS5003;31832;50.746;-2.716;2023-10-09T09:14:07;29;26;
46094;PMS5003;31832;50.746;-2.716;2023-10-09T09:16:32;27;24;
46094;PMS5003;31832;50.746;-2.716;2023-10-09T09:18:59;29;28;
46094;PMS5003;31832;50.746;-2.716;2023-10-09T09:21:24;32;30;
46094;PMS5003;31832;50.746;-2.716;2023-10-09T09:23:55;25;23;
46094;PMS5003;31832;50.746;-2.716;2023-10-09T09:26:15;25;23;
46094;PMS5003;31832;50.746;-2.716;2023-10-09T09:31:06;23;21;
46094;PMS5003;31832;50.746;-2.716;2023-10-09T09:33:31;17;17;
46094;PMS5003;31832;50.746;-2.716;2023-10-09T09:35:57;19;19;
46094;PMS5003;31832;50.746;-2.716;2023-10-09T09:38:23;21;19;
46094;PMS5003;31832;50.746;-2.716;2023-10-09T09:40:48;26;25;
46094;PMS5003;31832;50.746;-2.716;2023-10-09T09:43:13;20;18;
46094;PMS5003;31832;50.746;-2.716;2023-10-09T09:45:39;20;18;
46094;PMS5003;31832;50.746;-2.716;2023-10-09T09:48:05;14;14;
46094;PMS5003;31832;50.746;-2.716;2023-10-09T09:50:30;23;22;
46094;PMS5003;31832;50.746;-2.716;2023-10-09T09:52:55;15;13;
46094;PMS5003;31832;50.746;-2.716;2023-10-09T09:55:21;16;16;
46094;PMS5003;31832;50.746;-2.716;2023-10-09T09:57:47;20;19;
46094;PMS5003;31832;50.746;-2.716;2023-10-09T10:00:12;21;21;
46094;PMS5003;31832;50.746;-2.716;2023-10-09T10:02:37;18;18;
46094;PMS5003;31832;50.746;-2.716;2023-10-09T10:05:04;24;22;
46094;PMS5003;31832;50.746;-2.716;2023-10-09T10:07:28;25;22;
46094;PMS5003;31832;50.746;-2.716;2023-10-09T10:09:53;27;24;
46094;PMS5003;31832;50.746;-2.716;2023-10-09T10:14:53;20;20;
46094;PMS5003;31832;50.746;-2.716;2023-10-09T10:17:10;25;24;
46094;PMS5003;31832;50.746;-2.716;2023-10-09T10:22:04;22;21;
46094;PMS5003;31832;50.746;-2.716;2023-10-09T10:29:17;21;20;
46094;PMS5003;31832;50.746;-2.716;2023-10-09T10:34:07;17;17;
46094;PMS5003;31832;50.746;-2.716;2023-10-09T10:36:33;16;16;
46094;PMS5003;31832;50.746;-2.716;2023-10-09T10:38:59;18;17;
46094;PMS5003;31832;50.746;-2.716;2023-10-09T10:41:23;16;16;
46094;PMS5003;31832;50.746;-2.716;2023-10-09T10:43:49;19;18;
46094;PMS5003;31832;50.746;-2.716;2023-10-09T10:46:15;17;15;
46094;PMS5003;31832;50.746;-2.716;2023-10-09T10:48:40;24;18;
46094;PMS5003;31832;50.746;-2.716;2023-10-09T10:51:05;20;18;
46094;PMS5003;31832;50.746;-2.716;2023-10-09T10:53:31;21;21;
46094;PMS5003;31832;50.746;-2.716;2023-10-09T10:55:57;20;17;
46094;PMS5003;31832;50.746;-2.716;2023-10-09T10:58:22;23;21;
46094;PMS5003;31832;50.746;-2.716;2023-10-09T11:00:51;16;16;
46094;PMS5003;31832;50.746;-2.716;2023-10-09T11:03:17;19;18;
46094;PMS5003;31832;50.746;-2.716;2023-10-09T11:05:40;24;20;
46094;PMS5003;31832;50.746;-2.716;2023-10-09T11:08:05;24;22;
46094;PMS5003;31832;50.746;-2.716;2023-10-09T11:10:30;26;25;
46094;PMS5003;31832;50.746;-2.716;2023-10-09T11:12:55;21;19;
46094;PMS5003;31832;50.746;-2.716;2023-10-09T11:20:11;18;17;
46094;PMS5003;31832;50.746;-2.716;2023-10-09T11:22:37;21;19;
46094;PMS5003;31832;50.746;-2.716;2023-10-09T11:25:02;21;20;
46094;PMS5003;31832;50.746;-2.716;2023-10-09T11:27:28;19;17;
46094;PMS5003;31832;50.746;-2.716;2023-10-09T11:29:54;18;18;
46094;PMS5003;31832;50.746;-2.716;2023-10-09T11:32:19;19;17;
46094;PMS5003;31832;50.746;-2.716;2023-10-09T11:34:45;20;20;
46094;PMS5003;31832;50.746;-2.716;2023-10-09T11:37:12;19;18;
46094;PMS5003;31832;50.746;-2.716;2023-10-09T11:39:37;21;19;
46094;PMS5003;31832;50.746;-2.716;2023-10-09T11:42:02;21;21;
46094;PMS5003;31832;50.746;-2.716;2023-10-09T11:46:56;21;19;
46094;PMS5003;31832;50.746;-2.716;2023-10-09T11:49:17;17;17;
46094;PMS5003;31832;50.746;-2.716;2023-10-09T11:51:42;19;17;
46094;PMS5003;31832;50.746;-2.716;2023-10-09T11:54:08;18;17;
46094;PMS5003;31832;50.746;-2.716;2023-10-09T11:56:33;16;13;
46094;PMS5003;31832;50.746;-2.716;2023-10-09T11:58:58;17;16;
46094;PMS5003;31832;50.746;-2.716;2023-10-09T12:01:23;20;17;
46094;PMS5003;31832;50.746;-2.716;2023-10-09T12:03:49;21;19;
46094;PMS5003;31832;50.746;-2.716;2023-10-09T12:06:15;24;21;
46094;PMS5003;31832;50.746;-2.716;2023-10-09T12:08:40;34;30;
46094;PMS5003;31832;50.746;-2.716;2023-10-09T12:11:06;29;28;
46094;PMS5003;31832;50.746;-2.716;2023-10-09T12:13:31;24;24;
46094;PMS5003;31832;50.746;-2.716;2023-10-09T12:15:57;32;28;
46094;PMS5003;31832;50.746;-2.716;2023-10-09T12:18:23;41;37;
46094;PMS5003;31832;50.746;-2.716;2023-10-09T12:20:48;40;34;
46094;PMS5003;31832;50.746;-2.716;2023-10-09T12:23:13;38;38;
46094;PMS5003;31832;50.746;-2.716;2023-10-09T12:25:39;41;40;
46094;PMS5003;31832;50.746;-2.716;2023-10-09T12:28:05;43;43;
46094;PMS5003;31832;50.746;-2.716;2023-10-09T12:30:31;67;56;
46094;PMS5003;31832;50.746;-2.716;2023-10-09T12:32:57;63;61;
46094;PMS5003;31832;50.746;-2.716;2023-10-09T12:35:22;80;71;
46094;PMS5003;31832;50.746;-2.716;2023-10-09T12:37:47;72;70;
46094;PMS5003;31832;50.746;-2.716;2023-10-09T12:40:12;63;58;
46094;PMS5003;31832;50.746;-2.716;2023-10-09T12:42:37;58;52;
46094;PMS5003;31832;50.746;-2.716;2023-10-09T12:45:03;58;48;
46094;PMS5003;31832;50.746;-2.716;2023-10-09T12:47:28;42;42;
46094;PMS5003;31832;50.746;-2.716;2023-10-09T12:49:54;30;29;
46094;PMS5003;31832;50.746;-2.716;2023-10-09T12:52:19;18;18;
46094;PMS5003;31832;50.746;-2.716;2023-10-09T12:54:45;19;18;
46094;PMS5003;31832;50.746;-2.716;2023-10-09T12:57:10;21;19;
46094;PMS5003;31832;50.746;-2.716;2023-10-09T12:59:36;24;21;
46094;PMS5003;31832;50.746;-2.716;2023-10-09T13:02:01;24;21;
46094;PMS5003;31832;50.746;-2.716;2023-10-09T13:04:26;16;15;
46094;PMS5003;31832;50.746;-2.716;2023-10-09T13:06:52;17;17;
46094;PMS5003;31832;50.746;-2.716;2023-10-09T13:09:18;18;16;
46094;PMS5003;31832;50.746;-2.716;2023-10-09T13:11:43;15;14;
46094;PMS5003;31832;50.746;-2.716;2023-10-09T13:14:08;14;13;
46094;PMS5003;31832;50.746;-2.716;2023-10-09T13:16:33;15;13;
46094;PMS5003;31832;50.746;-2.716;2023-10-09T13:18:59;14;13;
46094;PMS5003;31832;50.746;-2.716;2023-10-09T13:21:25;18;17;
46094;PMS5003;31832;50.746;-2.716;2023-10-09T13:23:50;16;15;
46094;PMS5003;31832;50.746;-2.716;2023-10-09T13:26:16;15;15;
46094;PMS5003;31832;50.746;-2.716;2023-10-09T13:28:42;21;19;
46094;PMS5003;31832;50.746;-2.716;2023-10-09T13:31:07;18;16;
46094;PMS5003;31832;50.746;-2.716;2023-10-09T13:33:32;18;18;
46094;PMS5003;31832;50.746;-2.716;2023-10-09T13:35:58;22;19;
46094;PMS5003;31832;50.746;-2.716;2023-10-09T13:38:24;23;21;
46094;PMS5003;31832;50.746;-2.716;2023-10-09T13:43:14;17;16;
46094;PMS5003;31832;50.746;-2.716;2023-10-09T13:45:40;18;16;
46094;PMS5003;31832;50.746;-2.716;2023-10-09T13:48:05;20;18;
46094;PMS5003;31832;50.746;-2.716;2023-10-09T13:50:31;22;18;
46094;PMS5003;31832;50.746;-2.716;2023-10-09T13:52:56;18;18;
46094;PMS5003;31832;50.746;-2.716;2023-10-09T13:55:21;17;15;
46094;PMS5003;31832;50.746;-2.716;2023-10-09T13:57:46;16;15;
46094;PMS5003;31832;50.746;-2.716;2023-10-09T14:00:13;16;14;
46094;PMS5003;31832;50.746;-2.716;2023-10-09T14:02:37;16;13;
46094;PMS5003;31832;50.746;-2.716;2023-10-09T14:05:03;14;13;
46094;PMS5003;31832;50.746;-2.716;2023-10-09T14:07:29;12;12;
46094;PMS5003;31832;50.746;-2.716;2023-10-09T14:09:54;12;12;
46094;PMS5003;31832;50.746;-2.716;2023-10-09T14:12:19;10;10;
46094;PMS5003;31832;50.746;-2.716;2023-10-09T14:14:45;11;11;
46094;PMS5003;31832;50.746;-2.716;2023-10-09T14:17:11;12;9;
46094;PMS5003;31832;50.746;-2.716;2023-10-09T14:19:36;12;12;
46094;PMS5003;31832;50.746;-2.716;2023-10-09T14:22:01;13;13;
46094;PMS5003;31832;50.746;-2.716;2023-10-09T14:24:27;11;11;
46094;PMS5003;31832;50.746;-2.716;2023-10-09T14:26:52;12;12;
46094;PMS5003;31832;50.746;-2.716;2023-10-09T14:29:18;16;15;
46094;PMS5003;31832;50.746;-2.716;2023-10-09T14:31:43;12;12;
46094;PMS5003;31832;50.746;-2.716;2023-10-09T14:34:08;16;14;
46094;PMS5003;31832;50.746;-2.716;2023-10-09T14:36:34;14;13;
46094;PMS5003;31832;50.746;-2.716;2023-10-09T14:38:59;13;13;
46094;PMS5003;31832;50.746;-2.716;2023-10-09T14:41:25;14;13;
46094;PMS5003;31832;50.746;-2.716;2023-10-09T14:43:50;14;14;
46094;PMS5003;31832;50.746;-2.716;2023-10-09T14:46:16;17;16;
46094;PMS5003;31832;50.746;-2.716;2023-10-09T14:48:42;19;17;
46094;PMS5003;31832;50.746;-2.716;2023-10-09T14:51:07;16;15;
46094;PMS5003;31832;50.746;-2.716;2023-10-09T14:53:33;17;17;
46094;PMS5003;31832;50.746;-2.716;2023-10-09T14:55:58;16;16;
46094;PMS5003;31832;50.746;-2.716;2023-10-09T14:58:24;13;13;
46094;PMS5003;31832;50.746;-2.716;2023-10-09T15:00:49;15;15;
46094;PMS5003;31832;50.746;-2.716;2023-10-09T15:03:14;14;13;
46094;PMS5003;31832;50.746;-2.716;2023-10-09T15:05:40;14;12;
46094;PMS5003;31832;50.746;-2.716;2023-10-09T15:08:05;15;15;
46094;PMS5003;31832;50.746;-2.716;2023-10-09T15:10:31;13;12;
46094;PMS5003;31832;50.746;-2.716;2023-10-09T15:12:57;11;10;
46094;PMS5003;31832;50.746;-2.716;2023-10-09T15:15:22;49;42;
46094;PMS5003;31832;50.746;-2.716;2023-10-09T15:17:48;25;23;
46094;PMS5003;31832;50.746;-2.716;2023-10-09T15:20:14;24;20;
46094;PMS5003;31832;50.746;-2.716;2023-10-09T15:22:40;28;26;
46094;PMS5003;31832;50.746;-2.716;2023-10-09T15:25:04;14;12;
46094;PMS5003;31832;50.746;-2.716;2023-10-09T15:27:29;18;15;
46094;PMS5003;31832;50.746;-2.716;2023-10-09T15:29:55;25;22;
46094;PMS5003;31832;50.746;-2.716;2023-10-09T15:32:20;13;13;
46094;PMS5003;31832;50.746;-2.716;2023-10-09T15:34:45;13;12;
46094;PMS5003;31832;50.746;-2.716;2023-10-09T15:37:10;13;13;
46094;PMS5003;31832;50.746;-2.716;2023-10-09T15:39:36;16;13;
46094;PMS5003;31832;50.746;-2.716;2023-10-09T15:42:01;11;9;
46094;PMS5003;31832;50.746;-2.716;2023-10-09T15:44:26;15;14;
46094;PMS5003;31832;50.746;-2.716;2023-10-09T15:46:56;13;13;
46094;PMS5003;31832;50.746;-2.716;2023-10-09T15:49:17;19;18;
46094;PMS5003;31832;50.746;-2.716;2023-10-09T15:51:42;13;11;
46094;PMS5003;31832;50.746;-2.716;2023-10-09T15:54:07;18;14;
46094;PMS5003;31832;50.746;-2.716;2023-10-09T15:56:33;14;11;
46094;PMS5003;31832;50.746;-2.716;2023-10-09T15:58:58;12;12;
46094;PMS5003;31832;50.746;-2.716;2023-10-09T16:01:23;14;13;
46094;PMS5003;31832;50.746;-2.716;2023-10-09T16:03:49;15;13;
46094;PMS5003;31832;50.746;-2.716;2023-10-09T16:06:15;13;13;
46094;PMS5003;31832;50.746;-2.716;2023-10-09T16:08:40;15;12;
46094;PMS5003;31832;50.746;-2.716;2023-10-09T16:11:06;13;11;
46094;PMS5003;31832;50.746;-2.716;2023-10-09T16:13:32;18;15;